logo
Rechercher aéroport 
image banner adimage banner adimage banner ad
image banner ad

LZZI - Zilina

Situé à Dolny Hricov, Slovakia

ICAO - LZZI, IATA - ILZ

Données fournies par Airmate  

Information générale

Coordonnées: N49°14'0" E18°36'49"
Élévation : 1020 feet MSL.
Variation magnétique : 5.2804° East
Voir autres Aéroports à Žilina

Données opérationnelles

Special qualification required
Heure actuelle UTC:
Heure actuelle locale:
Météo
METAR: LZZI 230000Z VRB02KT 3500 BR OVC003 14/14 Q1012
TAF: TAF LZZI 222315Z 2300/2309 VRB02KT 9999 SCT025 TEMPO 2300/2306 2000 BCFG BR BKN003 PROB30 TEMPO 2302/2306 0300 FG
Voir NOTAMs / SUP AIP / TFR affectant cet aéroport [VIEW]
Fréquences de communication: [VIEW]

Pistes:

Identifiant RWYQFULongueur (ft)Largeur (ft)SurfaceLDA (ft)
0665°377398CONC+ASPH3773
24245°377398CONC+ASPH3773
06G65°3707148GRASS3707
24G245°3707148GRASS3707

Coordonnées de l'aéroport

Adresse: Dolny Hricov Slovakia

Autres services d'aviation

Écoles de pilotage

Letecké Výcvikové A Vzdelávacie Centrum Žilina

Letecké Výcvikové A Vzdelávacie Centrum Žilina
lvvc@lvvc.uniza.sk+421911306584

Clubs d'aviation (sans but lucratif)

Aerofatra

Aerofatra

Aeroklub Žilina

Aeroklub Žilina

Stredná Odborná Škola Dopravná

Stredná Odborná Škola Dopravná
zssd@nextra.sk+421434282539

Vue satellite de LZZI